Station Historical Data
Daily Summary for January 6, 2018 Units:  English    Metric   Both
« Previous Day
Next Day »
Daily Weekly Monthly Yearly Custom
  High: Low: Average:
Temperature: 5.8 °F -3.9 °F 0.8 °F
Dew Point: -1.7 °F -9.6 °F -6.3 °F
Humidity: 80% 61% 72%
Wind Speed: 12.0mph 1.0mph 4.8mph
Wind Gust: 18.0mph - -
Wind- - West
Pressure: 30.61 in 30.22 in -
Precipitation: 0.00 in    
Historical Graphs
 
 
Tabular Data for January 6, 2018
Time Temperature Dew Point Pressure Wind Wind Speed Wind Gust Humidity Rainfall Rate (Hourly)
00:04 2.2 °F -4.8 °F 30.22 in West 10.0 mph 16.0 mph 72% 0.00 in
00:09 2.2 °F -4.8 °F 30.23 in West 8.0 mph 17.0 mph 72% 0.00 in
00:14 2.2 °F -4.8 °F 30.23 in West 8.0 mph 17.0 mph 72% 0.00 in
00:19 2.2 °F -4.8 °F 30.23 in West 7.0 mph 13.0 mph 72% 0.00 in
00:24 2.3 °F -4.7 °F 30.23 in WSW 3.0 mph 18.0 mph 72% 0.00 in
00:25 2.3 °F -4.7 °F 30.23 in West 7.0 mph 18.0 mph 72% 0.00 in
00:34 2.3 °F -4.7 °F 30.23 in West 8.0 mph 11.0 mph 72% 0.00 in
00:39 2.3 °F -5.0 °F 30.24 in West 5.0 mph 14.0 mph 71% 0.00 in
00:44 2.3 °F -5.0 °F 30.24 in West 7.0 mph 14.0 mph 71% 0.00 in
00:54 2.2 °F -5.1 °F 30.24 in West 6.0 mph 12.0 mph 71% 0.00 in
00:59 2.2 °F -5.1 °F 30.24 in West 6.0 mph 11.0 mph 71% 0.00 in
01:04 2.1 °F -5.2 °F 30.24 in West 5.0 mph 9.0 mph 71% 0.00 in
01:14 2.0 °F -5.2 °F 30.25 in West 5.0 mph 15.0 mph 71% 0.00 in
01:19 1.9 °F -5.3 °F 30.25 in West 6.0 mph 15.0 mph 71% 0.00 in
01:24 1.8 °F -5.2 °F 30.25 in West 7.0 mph 14.0 mph 72% 0.00 in
01:29 1.7 °F -5.2 °F 30.25 in West 7.0 mph 14.0 mph 72% 0.00 in
01:39 1.4 °F -5.5 °F 30.26 in West 6.0 mph 13.0 mph 72% 0.00 in
01:44 1.3 °F -5.3 °F 30.26 in West 6.0 mph 11.0 mph 73% 0.00 in
01:49 1.2 °F -5.4 °F 30.27 in WNW 5.0 mph 9.0 mph 73% 0.00 in
01:54 1.1 °F -5.5 °F 30.27 in West 5.0 mph 12.0 mph 73% 0.00 in
01:59 1.0 °F -5.6 °F 30.27 in WSW 5.0 mph 9.0 mph 73% 0.00 in
02:04 1.0 °F -5.6 °F 30.28 in West 9.0 mph 12.0 mph 73% 0.00 in
02:09 0.9 °F -5.7 °F 30.28 in WSW 5.0 mph 12.0 mph 73% 0.00 in
02:14 0.8 °F -5.8 °F 30.28 in West 6.0 mph 12.0 mph 73% 0.00 in
02:19 0.8 °F -5.5 °F 30.29 in WNW 8.0 mph 10.0 mph 74% 0.00 in
02:24 0.6 °F -5.7 °F 30.29 in West 6.0 mph 11.0 mph 74% 0.00 in
02:29 0.5 °F -5.8 °F 30.30 in West 7.0 mph 11.0 mph 74% 0.00 in
02:34 0.5 °F -5.8 °F 30.30 in West 6.0 mph 14.0 mph 74% 0.00 in
02:35 0.5 °F -5.8 °F 30.30 in West 6.0 mph 14.0 mph 74% 0.00 in
02:44 0.1 °F -5.9 °F 30.31 in West 6.0 mph 13.0 mph 75% 0.00 in
02:49 -0.1 °F -6.1 °F 30.31 in West 4.0 mph 12.0 mph 75% 0.00 in
02:54 -0.2 °F -6.2 °F 30.31 in WNW 7.0 mph 12.0 mph 75% 0.00 in
02:59 -0.2 °F -6.0 °F 30.31 in West 4.0 mph 8.0 mph 76% 0.00 in
03:04 -0.2 °F -6.2 °F 30.31 in West 5.0 mph 8.0 mph 75% 0.00 in
03:14 -0.3 °F -6.1 °F 30.31 in NW 8.0 mph 12.0 mph 76% 0.00 in
03:19 -0.4 °F -6.2 °F 30.32 in West 6.0 mph 12.0 mph 76% 0.00 in
03:24 -0.7 °F -6.5 °F 30.31 in West 7.0 mph 13.0 mph 76% 0.00 in
03:29 -0.9 °F -6.6 °F 30.32 in West 6.0 mph 13.0 mph 76% 0.00 in
03:34 -1.0 °F -6.5 °F 30.31 in West 7.0 mph 13.0 mph 77% 0.00 in
03:39 -1.1 °F -6.6 °F 30.31 in WSW 9.0 mph 11.0 mph 77% 0.00 in
03:44 -1.2 °F -6.7 °F 30.32 in West 5.0 mph 11.0 mph 77% 0.00 in
03:49 -1.2 °F -6.7 °F 30.32 in West 5.0 mph 10.0 mph 77% 0.00 in
03:54 -1.3 °F -6.8 °F 30.32 in West 3.0 mph 10.0 mph 77% 0.00 in
03:59 -1.4 °F -6.9 °F 30.32 in West 5.0 mph 10.0 mph 77% 0.00 in
04:04 -1.6 °F -6.8 °F 30.32 in WNW 5.0 mph 8.0 mph 78% 0.00 in
04:09 -1.8 °F -7.0 °F 30.32 in West 10.0 mph 10.0 mph 78% 0.00 in
04:14 -2.1 °F -7.5 °F 30.32 in West 5.0 mph 10.0 mph 77% 0.00 in
04:19 -2.3 °F -7.7 °F 30.32 in West 5.0 mph 11.0 mph 77% 0.00 in
04:24 -2.5 °F -7.9 °F 30.33 in West 5.0 mph 11.0 mph 77% 0.00 in
04:29 -2.5 °F -7.9 °F 30.33 in West 5.0 mph 8.0 mph 77% 0.00 in
04:34 -2.6 °F -8.0 °F 30.33 in West 7.0 mph 11.0 mph 77% 0.00 in
04:39 -2.7 °F -8.1 °F 30.33 in NW 6.0 mph 10.0 mph 77% 0.00 in
04:44 -2.8 °F -8.2 °F 30.33 in West 6.0 mph 11.0 mph 77% 0.00 in
04:49 -2.8 °F -8.2 °F 30.33 in WSW 5.0 mph 13.0 mph 77% 0.00 in
04:59 -2.8 °F -8.2 °F 30.33 in West 5.0 mph 12.0 mph 77% 0.00 in
05:09 -2.7 °F -8.1 °F 30.34 in WNW 7.0 mph 11.0 mph 77% 0.00 in
05:14 -2.7 °F -8.4 °F 30.34 in West 3.0 mph 11.0 mph 76% 0.00 in
05:19 -2.8 °F -8.5 °F 30.34 in West 3.0 mph 10.0 mph 76% 0.00 in
05:29 -3.1 °F -8.8 °F 30.35 in West 5.0 mph 10.0 mph 76% 0.00 in
05:34 -3.3 °F -9.0 °F 30.35 in West 2.0 mph 8.0 mph 76% 0.00 in
05:39 -3.5 °F -9.2 °F 30.35 in West 4.0 mph 10.0 mph 76% 0.00 in
05:44 -3.6 °F -9.3 °F 30.35 in West 5.0 mph 10.0 mph 76% 0.00 in
05:49 -3.7 °F -9.4 °F 30.35 in WNW 6.0 mph 9.0 mph 76% 0.00 in
05:54 -3.8 °F -9.5 °F 30.35 in West 4.0 mph 9.0 mph 76% 0.00 in
05:59 -3.9 °F -9.6 °F 30.35 in West 4.0 mph 7.0 mph 76% 0.00 in
06:04 -3.8 °F -9.5 °F 30.35 in West 4.0 mph 8.0 mph 76% 0.00 in
06:09 -3.6 °F -9.0 °F 30.35 in WNW 4.0 mph 8.0 mph 77% 0.00 in
06:19 -3.3 °F -8.7 °F 30.36 in WSW 3.0 mph 6.0 mph 77% 0.00 in
06:24 -3.2 °F -8.4 °F 30.36 in WSW 3.0 mph 10.0 mph 78% 0.00 in
06:29 -3.2 °F -8.4 °F 30.36 in West 4.0 mph 10.0 mph 78% 0.00 in
06:34 -3.4 °F -8.5 °F 30.36 in West 5.0 mph 9.0 mph 78% 0.00 in
06:49 -3.6 °F -8.7 °F 30.37 in WSW 1.0 mph 10.0 mph 78% 0.00 in
06:54 -3.6 °F -8.7 °F 30.37 in West 5.0 mph 10.0 mph 78% 0.00 in
07:04 -3.8 °F -8.9 °F 30.38 in West 5.0 mph 8.0 mph 78% 0.00 in
07:09 -3.8 °F -8.9 °F 30.38 in West 4.0 mph 8.0 mph 78% 0.00 in
07:19 -3.9 °F -9.0 °F 30.39 in West 5.0 mph 9.0 mph 78% 0.00 in
07:24 -3.9 °F -9.0 °F 30.39 in West 5.0 mph 9.0 mph 78% 0.00 in
07:29 -3.9 °F -9.0 °F 30.39 in West 4.0 mph 9.0 mph 78% 0.00 in
07:34 -3.8 °F -8.7 °F 30.39 in West 5.0 mph 11.0 mph 79% 0.00 in
07:39 -3.7 °F -8.6 °F 30.40 in West 3.0 mph 9.0 mph 79% 0.00 in
07:49 -3.6 °F -8.5 °F 30.40 in West 4.0 mph 8.0 mph 79% 0.00 in
07:54 -3.6 °F -8.5 °F 30.40 in West 6.0 mph 10.0 mph 79% 0.00 in
07:59 -3.5 °F -8.4 °F 30.41 in WNW 5.0 mph 10.0 mph 79% 0.00 in
08:04 -3.4 °F -8.3 °F 30.41 in WNW 6.0 mph 8.0 mph 79% 0.00 in
08:09 -3.4 °F -8.3 °F 30.41 in West 5.0 mph 10.0 mph 79% 0.00 in
08:14 -3.4 °F -8.3 °F 30.41 in WNW 2.0 mph 9.0 mph 79% 0.00 in
08:19 -3.5 °F -8.4 °F 30.42 in West 4.0 mph 9.0 mph 79% 0.00 in
08:20 -3.5 °F -8.4 °F 30.42 in WNW 3.0 mph 9.0 mph 79% 0.00 in
08:29 -3.3 °F -8.2 °F 30.42 in West 4.0 mph 8.0 mph 79% 0.00 in
08:34 -3.1 °F -8.0 °F 30.43 in West 4.0 mph 9.0 mph 79% 0.00 in
08:39 -2.9 °F -7.5 °F 30.43 in West 4.0 mph 8.0 mph 80% 0.00 in
08:44 -2.7 °F -7.3 °F 30.43 in West 4.0 mph 8.0 mph 80% 0.00 in
08:49 -2.5 °F -7.1 °F 30.43 in West 4.0 mph 8.0 mph 80% 0.00 in
08:54 -2.3 °F -7.0 °F 30.44 in West 3.0 mph 7.0 mph 80% 0.00 in
08:59 -2.1 °F -6.8 °F 30.44 in WSW 3.0 mph 6.0 mph 80% 0.00 in
09:04 -2.0 °F -6.7 °F 30.44 in West 5.0 mph 7.0 mph 80% 0.00 in
09:09 -1.8 °F -6.5 °F 30.44 in West 3.0 mph 7.0 mph 80% 0.00 in
09:14 -1.6 °F -6.3 °F 30.44 in West 3.0 mph 7.0 mph 80% 0.00 in
09:19 -1.3 °F -6.0 °F 30.44 in West 4.0 mph 10.0 mph 80% 0.00 in
09:24 -1.0 °F -5.7 °F 30.45 in West 4.0 mph 10.0 mph 80% 0.00 in
09:29 -0.8 °F -5.5 °F 30.45 in West 4.0 mph 8.0 mph 80% 0.00 in
09:35 -0.7 °F -5.4 °F 30.45 in West 4.0 mph 8.0 mph 80% 0.00 in
09:44 -0.4 °F -5.4 °F 30.46 in West 5.0 mph 10.0 mph 79% 0.00 in
09:49 -0.2 °F -5.2 °F 30.46 in WSW 3.0 mph 8.0 mph 79% 0.00 in
09:54 0.0 °F -5.0 °F 30.46 in West 4.0 mph 9.0 mph 79% 0.00 in
09:59 0.1 °F -5.1 °F 30.46 in WSW 3.0 mph 11.0 mph 78% 0.00 in
10:04 0.2 °F -5.0 °F 30.47 in West 3.0 mph 7.0 mph 78% 0.00 in
10:09 0.4 °F -4.8 °F 30.47 in West 4.0 mph 7.0 mph 78% 0.00 in
10:14 0.6 °F -4.6 °F 30.47 in West 5.0 mph 9.0 mph 78% 0.00 in
10:19 0.9 °F -4.4 °F 30.47 in West 2.0 mph 9.0 mph 78% 0.00 in
10:24 1.0 °F -4.3 °F 30.47 in West 4.0 mph 9.0 mph 78% 0.00 in
10:29 1.0 °F -4.5 °F 30.48 in WSW 4.0 mph 9.0 mph 77% 0.00 in
10:34 1.2 °F -4.3 °F 30.48 in WSW 5.0 mph 8.0 mph 77% 0.00 in
10:39 1.1 °F -4.4 °F 30.48 in West 5.0 mph 9.0 mph 77% 0.00 in
10:44 1.2 °F -4.3 °F 30.48 in West 7.0 mph 10.0 mph 77% 0.00 in
10:49 1.3 °F -4.2 °F 30.48 in West 4.0 mph 9.0 mph 77% 0.00 in
10:54 1.3 °F -4.2 °F 30.48 in West 7.0 mph 10.0 mph 77% 0.00 in
10:59 1.6 °F -3.9 °F 30.49 in West 5.0 mph 10.0 mph 77% 0.00 in
11:09 2.2 °F -3.4 °F 30.49 in West 6.0 mph 11.0 mph 77% 0.00 in
11:19 3.0 °F -3.1 °F 30.48 in West 7.0 mph 12.0 mph 75% 0.00 in
11:24 3.1 °F -3.0 °F 30.48 in WSW 3.0 mph 10.0 mph 75% 0.00 in
11:29 3.0 °F -3.4 °F 30.48 in West 7.0 mph 14.0 mph 74% 0.00 in
11:39 3.3 °F -3.4 °F 30.48 in West 6.0 mph 11.0 mph 73% 0.00 in
11:44 3.3 °F -3.7 °F 30.48 in West 6.0 mph 10.0 mph 72% 0.00 in
11:54 3.5 °F -3.2 °F 30.48 in West 6.0 mph 10.0 mph 73% 0.00 in
11:59 3.6 °F -3.1 °F 30.48 in West 3.0 mph 11.0 mph 73% 0.00 in
12:04 3.7 °F -3.0 °F 30.48 in WNW 5.0 mph 10.0 mph 73% 0.00 in
12:09 3.8 °F -3.2 °F 30.48 in West 6.0 mph 13.0 mph 72% 0.00 in
12:14 3.7 °F -3.3 °F 30.48 in WSW 8.0 mph 9.0 mph 72% 0.00 in
12:19 3.7 °F -3.3 °F 30.48 in West 4.0 mph 11.0 mph 72% 0.00 in
12:24 4.2 °F -2.5 °F 30.48 in West 5.0 mph 11.0 mph 73% 0.00 in
12:29 4.4 °F -2.6 °F 30.48 in WNW 4.0 mph 9.0 mph 72% 0.00 in
12:34 4.4 °F -2.6 °F 30.49 in SW 2.0 mph 8.0 mph 72% 0.00 in
12:39 4.5 °F -2.5 °F 30.49 in West 7.0 mph 11.0 mph 72% 0.00 in
12:44 4.5 °F -2.5 °F 30.49 in WSW 5.0 mph 10.0 mph 72% 0.00 in
12:49 4.3 °F -2.7 °F 30.49 in West 6.0 mph 10.0 mph 72% 0.00 in
12:59 5.1 °F -2.0 °F 30.49 in West 4.0 mph 9.0 mph 72% 0.00 in
13:04 5.3 °F -1.8 °F 30.49 in West 5.0 mph 10.0 mph 72% 0.00 in
13:09 5.2 °F -1.9 °F 30.49 in WNW 5.0 mph 10.0 mph 72% 0.00 in
13:14 5.4 °F -1.7 °F 30.49 in WNW 4.0 mph 9.0 mph 72% 0.00 in
13:19 5.3 °F -1.8 °F 30.49 in NNW 3.0 mph 9.0 mph 72% 0.00 in
13:24 4.9 °F -2.2 °F 30.49 in West 4.0 mph 9.0 mph 72% 0.00 in
13:29 4.4 °F -2.6 °F 30.49 in WNW 10.0 mph 11.0 mph 72% 0.00 in
13:34 4.1 °F -2.9 °F 30.49 in NW 3.0 mph 10.0 mph 72% 0.00 in
13:40 3.8 °F -3.5 °F 30.50 in NW 5.0 mph 10.0 mph 71% 0.00 in
13:49 4.2 °F -3.4 °F 30.50 in West 7.0 mph 10.0 mph 70% 0.00 in
14:00 3.7 °F -4.2 °F 30.50 in WNW 7.0 mph 13.0 mph 69% 0.00 in
14:09 3.6 °F -4.3 °F 30.50 in WNW 6.0 mph 11.0 mph 69% 0.00 in
14:14 4.1 °F -3.8 °F 30.51 in WNW 5.0 mph 11.0 mph 69% 0.00 in
14:24 4.5 °F -3.7 °F 30.51 in WNW 6.0 mph 12.0 mph 68% 0.00 in
14:34 5.5 °F -3.1 °F 30.51 in WNW 5.0 mph 9.0 mph 67% 0.00 in
14:39 5.7 °F -2.9 °F 30.51 in NW 5.0 mph 11.0 mph 67% 0.00 in
14:44 5.7 °F -3.2 °F 30.52 in WNW 5.0 mph 11.0 mph 66% 0.00 in
14:49 5.7 °F -3.2 °F 30.52 in WNW 5.0 mph 9.0 mph 66% 0.00 in
14:54 5.8 °F -2.8 °F 30.52 in WNW 4.0 mph 9.0 mph 67% 0.00 in
14:59 5.6 °F -3.3 °F 30.52 in WNW 4.0 mph 8.0 mph 66% 0.00 in
15:04 5.3 °F -3.6 °F 30.53 in West 3.0 mph 7.0 mph 66% 0.00 in
15:09 5.1 °F -3.5 °F 30.53 in West 4.0 mph 7.0 mph 67% 0.00 in
15:14 5.1 °F -3.2 °F 30.53 in WNW 3.0 mph 6.0 mph 68% 0.00 in
15:19 5.1 °F -3.2 °F 30.53 in SW 8.0 mph 9.0 mph 68% 0.00 in
15:24 4.9 °F -3.1 °F 30.53 in West 6.0 mph 8.0 mph 69% 0.00 in
15:29 5.1 °F -2.9 °F 30.53 in West 12.0 mph 12.0 mph 69% 0.00 in
15:34 5.1 °F -3.5 °F 30.53 in West 6.0 mph 14.0 mph 67% 0.00 in
15:39 5.1 °F -3.8 °F 30.53 in West 6.0 mph 14.0 mph 66% 0.00 in
15:44 4.9 °F -4.6 °F 30.54 in West 5.0 mph 9.0 mph 64% 0.00 in
15:49 4.8 °F -4.7 °F 30.54 in West 5.0 mph 9.0 mph 64% 0.00 in
15:54 4.7 °F -5.1 °F 30.54 in West 5.0 mph 8.0 mph 63% 0.00 in
15:59 4.6 °F -5.2 °F 30.54 in West 5.0 mph 8.0 mph 63% 0.00 in
16:04 4.4 °F -5.4 °F 30.54 in WSW 5.0 mph 10.0 mph 63% 0.00 in
16:09 4.1 °F -6.0 °F 30.54 in WSW 6.0 mph 12.0 mph 62% 0.00 in
16:14 3.7 °F -6.4 °F 30.55 in WSW 6.0 mph 12.0 mph 62% 0.00 in
16:19 3.4 °F -6.7 °F 30.55 in WSW 3.0 mph 8.0 mph 62% 0.00 in
16:24 3.3 °F -6.8 °F 30.55 in West 7.0 mph 8.0 mph 62% 0.00 in
16:29 3.0 °F -7.1 °F 30.55 in West 4.0 mph 9.0 mph 62% 0.00 in
16:34 2.8 °F -7.3 °F 30.55 in WNW 3.0 mph 12.0 mph 62% 0.00 in
16:39 2.6 °F -7.5 °F 30.55 in West 3.0 mph 9.0 mph 62% 0.00 in
16:44 2.5 °F -7.6 °F 30.55 in West 4.0 mph 10.0 mph 62% 0.00 in
16:49 2.3 °F -8.1 °F 30.55 in West 5.0 mph 11.0 mph 61% 0.00 in
16:54 2.2 °F -8.2 °F 30.55 in West 5.0 mph 11.0 mph 61% 0.00 in
16:59 2.1 °F -8.0 °F 30.55 in WSW 5.0 mph 11.0 mph 62% 0.00 in
17:04 2.0 °F -8.0 °F 30.55 in WSW 4.0 mph 11.0 mph 62% 0.00 in
17:09 2.0 °F -8.0 °F 30.56 in West 6.0 mph 9.0 mph 62% 0.00 in
17:14 1.8 °F -8.2 °F 30.56 in West 4.0 mph 9.0 mph 62% 0.00 in
17:19 1.8 °F -8.2 °F 30.56 in WSW 5.0 mph 10.0 mph 62% 0.00 in
17:24 1.8 °F -8.2 °F 30.56 in WSW 5.0 mph 11.0 mph 62% 0.00 in
17:29 1.8 °F -8.2 °F 30.56 in WSW 5.0 mph 11.0 mph 62% 0.00 in
17:39 1.7 °F -8.3 °F 30.56 in West 5.0 mph 10.0 mph 62% 0.00 in
17:44 1.5 °F -8.5 °F 30.57 in SW 4.0 mph 7.0 mph 62% 0.00 in
17:49 1.4 °F -8.6 °F 30.57 in WNW 5.0 mph 7.0 mph 62% 0.00 in
17:54 1.3 °F -8.7 °F 30.57 in West 4.0 mph 9.0 mph 62% 0.00 in
18:04 1.2 °F -8.5 °F 30.57 in West 4.0 mph 9.0 mph 63% 0.00 in
18:09 1.2 °F -8.5 °F 30.57 in West 2.0 mph 7.0 mph 63% 0.00 in
18:14 1.2 °F -8.5 °F 30.57 in West 4.0 mph 7.0 mph 63% 0.00 in
18:19 1.0 °F -8.7 °F 30.57 in WSW 7.0 mph 7.0 mph 63% 0.00 in
18:24 1.0 °F -8.7 °F 30.57 in West 4.0 mph 6.0 mph 63% 0.00 in
18:29 1.0 °F -8.7 °F 30.58 in West 6.0 mph 8.0 mph 63% 0.00 in
18:34 0.9 °F -8.8 °F 30.58 in West 3.0 mph 8.0 mph 63% 0.00 in
18:39 0.8 °F -8.9 °F 30.58 in West 4.0 mph 9.0 mph 63% 0.00 in
18:44 0.8 °F -9.2 °F 30.58 in WSW 1.0 mph 8.0 mph 62% 0.00 in
18:49 0.7 °F -9.3 °F 30.58 in WSW 4.0 mph 7.0 mph 62% 0.00 in
18:54 0.7 °F -9.0 °F 30.58 in West 2.0 mph 8.0 mph 63% 0.00 in
18:59 0.6 °F -9.1 °F 30.58 in West 5.0 mph 9.0 mph 63% 0.00 in
19:04 0.6 °F -9.1 °F 30.58 in West 4.0 mph 9.0 mph 63% 0.00 in
19:14 0.4 °F -8.9 °F 30.58 in West 2.0 mph 8.0 mph 64% 0.00 in
19:19 0.4 °F -8.9 °F 30.58 in West 2.0 mph 10.0 mph 64% 0.00 in
19:29 0.3 °F -9.3 °F 30.59 in West 5.0 mph 13.0 mph 63% 0.00 in
19:34 0.3 °F -9.3 °F 30.59 in West 2.0 mph 10.0 mph 63% 0.00 in
19:39 0.2 °F -9.4 °F 30.59 in West 5.0 mph 11.0 mph 63% 0.00 in
19:44 0.1 °F -9.5 °F 30.60 in West 5.0 mph 11.0 mph 63% 0.00 in
19:54 0.1 °F -9.5 °F 30.59 in West 5.0 mph 10.0 mph 63% 0.00 in
19:59 0.1 °F -9.2 °F 30.60 in West 5.0 mph 10.0 mph 64% 0.00 in
20:04 0.1 °F -9.2 °F 30.59 in West 4.0 mph 10.0 mph 64% 0.00 in
20:09 0.0 °F -9.0 °F 30.60 in West 4.0 mph 9.0 mph 65% 0.00 in
20:19 0.1 °F -8.9 °F 30.60 in West 4.0 mph 8.0 mph 65% 0.00 in
20:24 0.1 °F -8.6 °F 30.60 in West 4.0 mph 8.0 mph 66% 0.00 in
20:29 0.0 °F -8.7 °F 30.61 in West 4.0 mph 8.0 mph 66% 0.00 in
20:34 0.0 °F -8.7 °F 30.61 in West 3.0 mph 10.0 mph 66% 0.00 in
20:39 0.0 °F -8.7 °F 30.60 in West 4.0 mph 10.0 mph 66% 0.00 in
20:44 -0.1 °F -8.5 °F 30.60 in West 5.0 mph 10.0 mph 67% 0.00 in
20:49 -0.2 °F -8.6 °F 30.60 in NW 6.0 mph 9.0 mph 67% 0.00 in
20:54 -0.1 °F -8.5 °F 30.60 in WSW 6.0 mph 11.0 mph 67% 0.00 in
20:59 -0.2 °F -8.6 °F 30.60 in West 5.0 mph 11.0 mph 67% 0.00 in
21:04 -0.3 °F -8.4 °F 30.61 in West 5.0 mph 9.0 mph 68% 0.00 in
21:09 -0.3 °F -8.4 °F 30.61 in West 5.0 mph 9.0 mph 68% 0.00 in
21:14 -0.4 °F -8.4 °F 30.61 in West 3.0 mph 8.0 mph 68% 0.00 in
21:19 -0.4 °F -8.2 °F 30.61 in WSW 3.0 mph 8.0 mph 69% 0.00 in
21:24 -0.4 °F -8.2 °F 30.61 in West 4.0 mph 8.0 mph 69% 0.00 in
21:39 -0.3 °F -7.8 °F 30.61 in WNW 7.0 mph 7.0 mph 70% 0.00 in
21:44 -0.3 °F -7.8 °F 30.61 in WSW 4.0 mph 8.0 mph 70% 0.00 in
21:49 -0.3 °F -7.8 °F 30.61 in West 3.0 mph 8.0 mph 70% 0.00 in
21:54 -0.1 °F -7.3 °F 30.61 in WSW 3.0 mph 7.0 mph 71% 0.00 in
22:04 0.1 °F -7.1 °F 30.61 in WSW 3.0 mph 7.0 mph 71% 0.00 in
22:09 0.4 °F -6.5 °F 30.61 in WSW 4.0 mph 7.0 mph 72% 0.00 in
22:14 0.6 °F -6.6 °F 30.61 in WSW 3.0 mph 7.0 mph 71% 0.00 in
22:19 0.8 °F -6.1 °F 30.61 in WSW 3.0 mph 7.0 mph 72% 0.00 in
22:24 0.9 °F -6.0 °F 30.61 in West 3.0 mph 5.0 mph 72% 0.00 in
22:34 1.2 °F -5.7 °F 30.61 in WSW 2.0 mph 5.0 mph 72% 0.00 in
22:39 1.3 °F -5.6 °F 30.61 in WSW 2.0 mph 5.0 mph 72% 0.00 in
22:44 1.4 °F -5.5 °F 30.61 in WSW 2.0 mph 5.0 mph 72% 0.00 in
22:50 1.5 °F -5.4 °F 30.61 in WSW 3.0 mph 6.0 mph 72% 0.00 in
22:59 1.7 °F -5.0 °F 30.61 in SW 3.0 mph 7.0 mph 73% 0.00 in
23:04 1.8 °F -4.9 °F 30.61 in WSW 3.0 mph 7.0 mph 73% 0.00 in
23:09 1.8 °F -4.9 °F 30.61 in WSW 3.0 mph 6.0 mph 73% 0.00 in
23:14 1.9 °F -4.8 °F 30.61 in WSW 3.0 mph 7.0 mph 73% 0.00 in
23:19 1.9 °F -5.1 °F 30.61 in WSW 3.0 mph 7.0 mph 72% 0.00 in
23:24 1.9 °F -5.1 °F 30.61 in WSW 3.0 mph 7.0 mph 72% 0.00 in
23:29 1.8 °F -5.2 °F 30.61 in WSW 2.0 mph 10.0 mph 72% 0.00 in
23:34 1.9 °F -5.1 °F 30.61 in WSW 4.0 mph 10.0 mph 72% 0.00 in
23:39 1.9 °F -4.8 °F 30.61 in WSW 4.0 mph 8.0 mph 73% 0.00 in
23:44 1.9 °F -4.8 °F 30.61 in WSW 4.0 mph 8.0 mph 73% 0.00 in
23:49 2.0 °F -4.7 °F 30.61 in WSW 4.0 mph 8.0 mph 73% 0.00 in
23:54 2.0 °F -4.7 °F 30.61 in WSW 4.0 mph 9.0 mph 73% 0.00 in
23:59 2.0 °F -4.7 °F 30.61 in WSW 4.0 mph 9.0 mph 73% 0.00 in
Buffalo, New York, USA
Compliments of Weather Underground - 2.25 mb